createdAt,value
2019-05-21T00:01:35.898Z,28.73
2019-05-21T00:04:02.438Z,36.75
2019-05-21T00:06:29.065Z,39.42
2019-05-21T00:08:55.592Z,40.60
2019-05-21T00:11:22.108Z,39.88
2019-05-21T00:13:48.640Z,37.00
2019-05-21T00:16:15.158Z,39.53
2019-05-21T00:18:41.708Z,39.00
2019-05-21T00:21:08.325Z,41.10
2019-05-21T00:23:34.850Z,39.18
2019-05-21T00:26:01.368Z,37.67
2019-05-21T00:28:37.186Z,45.63
2019-05-21T00:32:00.093Z,45.73
2019-05-21T00:35:24.898Z,43.30
2019-05-21T00:38:47.839Z,44.77
2019-05-21T00:42:04.779Z,48.23
2019-05-21T00:44:41.169Z,47.78
2019-05-21T00:47:10.453Z,47.50
2019-05-21T00:49:36.985Z,48.30
2019-05-21T00:52:08.584Z,45.52
2019-05-21T00:54:33.142Z,45.78
2019-05-21T00:56:59.892Z,47.73
2019-05-21T00:59:26.431Z,44.80
2019-05-21T01:01:52.964Z,47.95
2019-05-21T01:04:19.580Z,44.65
2019-05-21T01:06:46.121Z,43.08
2019-05-21T01:09:12.686Z,37.33
2019-05-21T01:11:39.247Z,38.13
2019-05-21T01:14:06.792Z,39.75
2019-05-21T01:16:33.331Z,34.92
2019-05-21T01:19:00.056Z,34.95
2019-05-21T01:21:26.696Z,31.15
2019-05-21T01:23:53.226Z,27.30
2019-05-21T01:26:19.768Z,31.12
2019-05-21T01:28:46.396Z,28.83
2019-05-21T01:31:12.941Z,28.65
2019-05-21T01:33:39.473Z,28.40
2019-05-21T01:36:06.034Z,26.30
2019-05-21T01:38:32.567Z,28.30
2019-05-21T01:40:59.212Z,29.70
2019-05-21T01:43:25.764Z,30.43
2019-05-21T01:45:52.312Z,27.70
2019-05-21T01:48:18.916Z,27.17
2019-05-21T01:50:45.477Z,28.27
2019-05-21T01:53:12.075Z,25.60
2019-05-21T01:55:38.714Z,25.72
2019-05-21T01:58:05.347Z,24.82
2019-05-21T02:00:32.001Z,21.20
2019-05-21T02:02:58.536Z,19.02
2019-05-21T02:05:32.909Z,20.30
2019-05-21T02:07:53.527Z,20.62
2019-05-21T02:10:20.082Z,22.02
2019-05-21T02:12:46.617Z,20.62
2019-05-21T02:15:13.251Z,20.30
2019-05-21T02:17:39.806Z,20.88
2019-05-21T02:20:06.770Z,20.37
2019-05-21T02:22:33.343Z,21.62
2019-05-21T02:24:59.886Z,20.68
2019-05-21T02:27:26.431Z,21.85
2019-05-21T02:29:53.062Z,24.63
2019-05-21T02:32:19.614Z,25.90
2019-05-21T02:34:46.146Z,25.25
2019-05-21T02:37:12.690Z,23.25
2019-05-21T02:39:39.229Z,25.80
2019-05-21T02:42:05.888Z,25.90
2019-05-21T02:44:32.436Z,28.83
2019-05-21T02:46:58.984Z,29.45
2019-05-21T02:49:25.523Z,33.75
2019-05-21T02:51:52.077Z,35.60
2019-05-21T02:54:18.610Z,36.03
2019-05-21T02:56:45.166Z,40.83
2019-05-21T02:59:11.777Z,39.45
2019-05-21T03:01:46.323Z,39.30
2019-05-21T03:04:12.850Z,39.00
2019-05-21T03:06:39.480Z,40.08
2019-05-21T03:09:06.113Z,39.35
2019-05-21T03:11:32.765Z,39.65
2019-05-21T03:13:59.308Z,43.30
2019-05-21T03:16:25.841Z,39.38
2019-05-21T03:18:52.397Z,42.65
2019-05-21T03:21:18.938Z,37.00
2019-05-21T03:23:45.473Z,44.48
2019-05-21T03:26:12.011Z,41.10
2019-05-21T03:28:38.589Z,39.83
2019-05-21T03:31:05.140Z,36.98
2019-05-21T03:33:31.677Z,34.18
2019-05-21T03:35:58.329Z,37.28
2019-05-21T03:38:25.034Z,37.53
2019-05-21T03:40:51.574Z,36.50
2019-05-21T03:43:18.123Z,33.30
2019-05-21T03:45:44.643Z,31.00
2019-05-21T03:48:11.182Z,31.00
2019-05-21T03:50:37.713Z,30.15
2019-05-21T03:53:04.364Z,29.60
2019-05-21T03:55:30.872Z,29.07
2019-05-21T03:57:57.423Z,28.75
2019-05-21T04:00:24.079Z,30.88
2019-05-21T04:02:50.592Z,27.77
2019-05-21T04:05:23.384Z,27.55
2019-05-21T04:07:50.213Z,25.95
2019-05-21T04:10:16.946Z,27.35
2019-05-21T04:12:45.396Z,26.05
2019-05-21T04:15:20.052Z,25.55
2019-05-21T04:18:00.568Z,27.27
2019-05-21T04:20:27.099Z,21.37
2019-05-21T04:22:53.639Z,20.08
2019-05-21T04:25:21.475Z,20.72
2019-05-21T04:27:48.084Z,22.07
2019-05-21T04:30:14.740Z,17.80
2019-05-21T04:32:41.336Z,15.95
2019-05-21T04:35:08.089Z,19.20
2019-05-21T04:37:34.621Z,17.32
2019-05-21T04:40:01.188Z,19.35
2019-05-21T04:42:27.714Z,17.42
2019-05-21T04:44:54.392Z,16.57
2019-05-21T04:47:20.972Z,15.93
2019-05-21T04:49:47.499Z,14.07
2019-05-21T04:52:14.045Z,15.60
2019-05-21T04:54:40.586Z,14.78
2019-05-21T04:57:07.228Z,14.15
2019-05-21T04:59:33.823Z,14.35
2019-05-21T05:02:00.350Z,14.70
2019-05-21T05:04:26.916Z,13.62
2019-05-21T05:06:53.465Z,13.45
2019-05-21T05:09:19.990Z,14.65
2019-05-21T05:11:46.615Z,14.30
2019-05-21T05:14:13.349Z,12.45
2019-05-21T05:16:39.873Z,12.20
2019-05-21T05:19:06.453Z,14.23
2019-05-21T05:21:32.976Z,12.63
2019-05-21T05:23:59.513Z,12.82
2019-05-21T05:26:26.053Z,13.22
2019-05-21T05:28:52.800Z,12.82
2019-05-21T05:31:19.339Z,10.55
2019-05-21T05:33:45.879Z,11.18
2019-05-21T05:36:12.401Z,11.30
2019-05-21T05:38:39.646Z,8.83
2019-05-21T05:41:06.187Z,9.03
2019-05-21T05:43:32.848Z,8.98
2019-05-21T05:45:59.375Z,8.30
2019-05-21T05:48:27.175Z,7.42
2019-05-21T05:50:58.269Z,6.80
2019-05-21T05:53:24.793Z,7.87
2019-05-21T05:55:51.444Z,6.40
2019-05-21T05:58:18.128Z,7.15
2019-05-21T06:00:44.927Z,6.97
2019-05-21T06:03:11.669Z,7.03
2019-05-21T06:05:38.558Z,7.03
2019-05-21T06:08:05.305Z,7.92
2019-05-21T06:10:31.987Z,7.25
2019-05-21T06:12:58.694Z,5.80
2019-05-21T06:15:25.399Z,5.90
2019-05-21T06:17:52.087Z,5.50
2019-05-21T06:20:19.946Z,5.28
2019-05-21T06:22:46.606Z,5.65
2019-05-21T06:25:15.168Z,6.53
2019-05-21T06:27:41.759Z,6.72
2019-05-21T06:30:09.867Z,6.72
2019-05-21T06:32:36.437Z,6.08
2019-05-21T06:35:04.677Z,6.67
2019-05-21T06:37:31.204Z,5.87
2019-05-21T06:39:57.746Z,6.30
2019-05-21T06:42:24.297Z,5.80
2019-05-21T06:44:51.034Z,5.17
2019-05-21T06:47:17.669Z,4.70
2019-05-21T06:49:44.555Z,4.28
2019-05-21T06:52:11.215Z,4.50
2019-05-21T06:54:37.860Z,4.30
2019-05-21T06:57:04.749Z,3.92
2019-05-21T06:59:31.499Z,3.90
2019-05-21T07:01:58.157Z,4.40
2019-05-21T07:04:24.836Z,4.22
2019-05-21T07:06:51.603Z,4.10
2019-05-21T07:09:18.361Z,3.72
2019-05-21T07:11:45.168Z,4.25
2019-05-21T07:14:12.069Z,3.37
2019-05-21T07:16:38.964Z,2.98
2019-05-21T07:19:05.779Z,3.05
2019-05-21T07:21:32.938Z,2.87
2019-05-21T07:23:59.981Z,3.25
2019-05-21T07:26:27.718Z,3.67
2019-05-21T07:28:56.394Z,2.90
2019-05-21T07:31:23.817Z,7.00
2019-05-21T07:33:50.613Z,4.62
2019-05-21T07:36:17.343Z,4.22
2019-05-21T07:38:53.436Z,3.65
2019-05-21T07:41:12.910Z,5.08
2019-05-21T07:43:39.543Z,3.37
2019-05-21T07:46:06.389Z,5.60
2019-05-21T07:48:33.268Z,5.45
2019-05-21T07:50:59.914Z,4.53
2019-05-21T07:53:26.841Z,6.28
2019-05-21T07:55:53.857Z,5.15
2019-05-21T07:58:21.100Z,5.30
2019-05-21T12:45:58.733Z,5.78
2019-05-21T12:48:25.278Z,7.15
2019-05-21T12:50:51.832Z,7.80
2019-05-21T12:53:18.386Z,8.95
2019-05-21T12:55:45.097Z,9.75
2019-05-21T12:59:35.368Z,10.48
2019-05-21T13:14:08.924Z,10.60
